Time;durP1;ratioP1;P1;durP2;ratioP2;P2;SDS_P1;SDS_P2;PMS_P1;PMS_P2;Temp;Humidity;BMP_temperature;BMP_pressure;BME280_temperature;BME280_humidity;BME280_pressure;Samples;Min_cycle;Max_cycle;Signal;HPM_P1;HPM_P2
2023/12/11 00:00:07;;;;;;;6.80;2.13;;;9.20;99.90;;;;;;5033710;28;20124;-65
2023/12/11 00:02:33;;;;;;;3.80;2.00;;;9.20;99.90;;;;;;5033909;28;20045;-66
2023/12/11 00:04:59;;;;;;;3.53;2.00;;;9.20;99.90;;;;;;5033795;28;20083;-65
2023/12/11 00:07:24;;;;;;;6.00;3.13;;;9.10;99.90;;;;;;5033779;28;20053;-65
2023/12/11 00:09:50;;;;;;;6.75;3.38;;;9.10;99.90;;;;;;5032160;28;20045;-65
2023/12/11 00:12:16;;;;;;;6.45;2.70;;;9.00;99.90;;;;;;5033596;28;20060;-65
2023/12/11 00:14:42;;;;;;;4.03;2.13;;;9.00;99.90;;;;;;5033655;28;20087;-65
2023/12/11 00:17:09;;;;;;;4.60;2.45;;;8.90;99.90;;;;;;5033284;28;20489;-65
2023/12/11 00:19:35;;;;;;;4.13;2.42;;;8.80;99.90;;;;;;5033547;28;20049;-65
2023/12/11 00:22:00;;;;;;;3.95;2.13;;;8.80;99.90;;;;;;5033689;28;20056;-65
2023/12/11 00:24:26;;;;;;;5.68;3.20;;;8.80;99.90;;;;;;5033402;28;20512;-65
2023/12/11 00:26:52;;;;;;;5.85;2.50;;;8.70;99.90;;;;;;5031853;28;20138;-65
2023/12/11 00:29:17;;;;;;;5.70;2.67;;;8.70;99.90;;;;;;5033409;28;20038;-65
2023/12/11 00:31:43;;;;;;;6.03;2.85;;;8.60;99.90;;;;;;5033247;28;20208;-65
2023/12/11 00:34:09;;;;;;;8.90;3.28;;;8.60;99.90;;;;;;5032388;28;20052;-65
2023/12/11 00:36:35;;;;;;;7.22;3.17;;;8.60;99.90;;;;;;5032859;28;20143;-65
2023/12/11 00:39:01;;;;;;;4.85;2.42;;;8.60;99.90;;;;;;5033013;28;20049;-68
2023/12/11 00:41:26;;;;;;;5.80;2.83;;;8.50;99.90;;;;;;5032046;28;20523;-65
2023/12/11 00:43:52;;;;;;;6.18;2.58;;;8.60;99.90;;;;;;5033036;28;20041;-65
2023/12/11 00:46:24;;;;;;;5.78;2.50;;;8.50;99.90;;;;;;5033031;28;20064;-65
2023/12/11 00:48:50;;;;;;;6.60;3.13;;;8.50;99.90;;;;;;5032996;28;20392;-65
2023/12/11 00:51:16;;;;;;;6.18;3.30;;;8.40;99.90;;;;;;5031771;28;20541;-65
2023/12/11 00:53:42;;;;;;;7.93;4.43;;;8.50;99.90;;;;;;5032904;28;20048;-65
2023/12/11 00:56:08;;;;;;;5.65;3.15;;;8.40;99.90;;;;;;5032884;28;20485;-65
2023/12/11 00:58:34;;;;;;;9.45;3.40;;;8.50;99.90;;;;;;5033135;28;20128;-65
2023/12/11 01:00:59;;;;;;;6.60;3.17;;;8.50;99.90;;;;;;5032770;28;20044;-65
2023/12/11 01:03:25;;;;;;;6.30;2.97;;;8.50;99.90;;;;;;5032671;28;20458;-65
2023/12/11 01:05:51;;;;;;;6.82;3.20;;;8.50;99.90;;;;;;5032662;28;20520;-65
2023/12/11 01:08:16;;;;;;;6.47;3.08;;;8.50;99.90;;;;;;5032683;28;20034;-65
2023/12/11 01:10:43;;;;;;;4.95;2.85;;;8.50;99.90;;;;;;5032612;28;20047;-65
2023/12/11 01:13:08;;;;;;;6.75;3.00;;;8.50;99.90;;;;;;5032612;28;20034;-65
2023/12/11 01:15:34;;;;;;;5.63;2.63;;;8.60;99.90;;;;;;5032558;28;20120;-65
2023/12/11 01:18:00;;;;;;;6.22;3.10;;;8.50;99.90;;;;;;5032567;28;20120;-65
2023/12/11 01:20:25;;;;;;;5.28;2.58;;;8.60;99.90;;;;;;5032414;28;20039;-65
2023/12/11 01:22:51;;;;;;;7.18;2.97;;;8.60;99.90;;;;;;5032448;28;20469;-65
2023/12/11 01:25:17;;;;;;;6.55;3.28;;;8.60;99.90;;;;;;5032369;28;20488;-65
2023/12/11 01:27:42;;;;;;;6.55;2.60;;;8.60;99.90;;;;;;5031205;28;20413;-65
2023/12/11 01:30:08;;;;;;;8.63;3.10;;;8.60;99.90;;;;;;5032339;28;20107;-65
2023/12/11 01:32:34;;;;;;;6.35;2.97;;;8.50;99.90;;;;;;5032032;28;20477;-65
2023/12/11 01:35:00;;;;;;;6.75;3.60;;;8.60;99.90;;;;;;5032031;28;20081;-65
2023/12/11 01:37:25;;;;;;;5.90;3.08;;;8.60;99.90;;;;;;5030761;28;20057;-65
2023/12/11 01:39:51;;;;;;;6.38;3.45;;;8.60;99.90;;;;;;5032329;28;20041;-65
2023/12/11 01:42:17;;;;;;;6.03;2.50;;;8.60;99.90;;;;;;5031967;28;20073;-65
2023/12/11 01:44:42;;;;;;;5.28;2.45;;;8.70;99.90;;;;;;5030324;28;20073;-65
2023/12/11 01:47:08;;;;;;;5.53;3.08;;;8.70;99.90;;;;;;5030603;28;20557;-65
2023/12/11 01:49:35;;;;;;;7.50;3.35;;;8.60;99.90;;;;;;5032071;28;20096;-65
2023/12/11 01:52:03;;;;;;;5.57;2.72;;;8.70;99.90;;;;;;5032025;28;20057;-65
2023/12/11 01:54:30;;;;;;;6.72;2.70;;;8.60;99.90;;;;;;5032064;28;20489;-65
2023/12/11 01:56:56;;;;;;;4.75;2.75;;;8.70;99.90;;;;;;5032103;28;20049;-65
2023/12/11 01:59:22;;;;;;;5.15;2.67;;;8.70;99.90;;;;;;5032071;28;20041;-65
2023/12/11 02:01:49;;;;;;;4.75;2.30;;;8.70;99.90;;;;;;5032353;28;20455;-65
2023/12/11 02:04:15;;;;;;;4.93;2.65;;;8.70;99.90;;;;;;5031925;28;20030;-65
2023/12/11 02:06:41;;;;;;;4.35;2.35;;;8.80;99.90;;;;;;5031992;28;20054;-66
2023/12/11 02:09:08;;;;;;;5.05;2.60;;;8.70;99.90;;;;;;5031951;28;20038;-65
2023/12/11 02:11:34;;;;;;;9.00;2.90;;;8.80;99.90;;;;;;5032082;28;20359;-65
2023/12/11 02:13:59;;;;;;;4.60;2.55;;;8.80;99.90;;;;;;5031601;28;20049;-65
2023/12/11 02:16:25;;;;;;;6.90;2.63;;;8.80;99.90;;;;;;5031962;28;20080;-65
2023/12/11 02:18:51;;;;;;;5.22;2.83;;;8.80;99.90;;;;;;5031863;28;20049;-65
2023/12/11 02:21:17;;;;;;;4.35;2.65;;;8.80;99.90;;;;;;5030337;28;20575;-67
2023/12/11 02:24:01;;;;;;;8.02;3.88;;;8.80;99.90;;;;;;5031405;28;20083;-65
2023/12/11 02:26:27;;;;;;;9.13;3.42;;;8.80;99.90;;;;;;5031853;28;20478;-65
2023/12/11 02:28:52;;;;;;;5.38;2.78;;;8.80;99.90;;;;;;5031806;28;20091;-65
2023/12/11 02:31:18;;;;;;;7.88;3.17;;;8.80;99.90;;;;;;5031817;28;20037;-65
2023/12/11 02:33:44;;;;;;;6.25;3.30;;;8.80;99.90;;;;;;5031689;28;20118;-65
2023/12/11 02:36:10;;;;;;;6.28;3.22;;;8.80;99.90;;;;;;5031337;28;20053;-65
2023/12/11 02:38:35;;;;;;;5.53;3.08;;;8.80;99.90;;;;;;5031406;28;20053;-65
2023/12/11 02:41:01;;;;;;;5.22;2.83;;;8.80;99.90;;;;;;5031640;28;20135;-65
2023/12/11 02:43:27;;;;;;;7.18;3.20;;;8.70;99.90;;;;;;5031554;28;20052;-65
2023/12/11 02:45:52;;;;;;;8.50;3.50;;;8.80;99.90;;;;;;5031708;28;20444;-65
2023/12/11 02:48:19;;;;;;;8.02;4.00;;;8.80;99.90;;;;;;5031351;28;20029;-65
2023/12/11 02:50:44;;;;;;;7.78;3.50;;;8.80;99.90;;;;;;5031604;28;20452;-65
2023/12/11 02:53:10;;;;;;;10.13;3.60;;;8.80;99.90;;;;;;5031507;28;20065;-66
2023/12/11 02:55:36;;;;;;;8.68;3.88;;;8.80;99.90;;;;;;5031321;28;20037;-65
2023/12/11 02:58:03;;;;;;;6.68;3.30;;;8.80;99.90;;;;;;5035109;28;20136;-65
2023/12/11 03:00:29;;;;;;;5.90;3.15;;;8.80;99.90;;;;;;5034766;28;20120;-65
2023/12/11 03:02:56;;;;;;;8.50;3.55;;;8.80;99.90;;;;;;5035131;28;20045;-67
2023/12/11 03:05:21;;;;;;;6.35;3.28;;;8.80;99.90;;;;;;5034920;28;20091;-65
2023/12/11 03:07:48;;;;;;;9.55;3.25;;;8.90;99.90;;;;;;5034939;28;20465;-65
2023/12/11 03:10:13;;;;;;;7.18;3.10;;;8.90;99.90;;;;;;5034671;28;20164;-65
2023/12/11 03:12:39;;;;;;;5.20;2.90;;;8.90;99.90;;;;;;5034910;28;20072;-65
2023/12/11 03:15:06;;;;;;;7.65;4.10;;;8.90;99.90;;;;;;5034625;28;20041;-65
2023/12/11 03:17:32;;;;;;;7.35;3.17;;;8.90;99.90;;;;;;5034869;28;20481;-65
2023/12/11 03:20:01;;;;;;;6.60;3.05;;;8.90;99.90;;;;;;5034416;28;20052;-65
2023/12/11 03:22:28;;;;;;;5.20;2.47;;;8.90;99.90;;;;;;5033473;28;20128;-65
2023/12/11 03:24:54;;;;;;;7.90;3.50;;;8.90;99.90;;;;;;5034614;28;20042;-65
2023/12/11 03:27:20;;;;;;;6.78;3.60;;;9.00;99.90;;;;;;5034620;28;20046;-65
2023/12/11 03:29:47;;;;;;;8.13;3.45;;;9.00;99.90;;;;;;5034572;28;20041;-65
2023/12/11 03:32:13;;;;;;;5.53;3.10;;;9.00;99.90;;;;;;5032951;28;20094;-65
2023/12/11 03:34:39;;;;;;;6.05;3.05;;;9.00;99.90;;;;;;5034144;28;20120;-65
2023/12/11 03:37:05;;;;;;;7.35;3.17;;;9.00;99.90;;;;;;5033923;28;20053;-65
2023/12/11 03:39:30;;;;;;;8.10;3.60;;;9.00;99.90;;;;;;5034078;28;20048;-65
2023/12/11 03:41:56;;;;;;;6.90;3.58;;;9.00;99.90;;;;;;5034063;28;20087;-65
2023/12/11 03:44:22;;;;;;;7.78;3.50;;;9.00;99.90;;;;;;5033874;28;20041;-65
2023/12/11 03:46:47;;;;;;;5.88;2.72;;;9.00;99.90;;;;;;5032719;28;20413;-65
2023/12/11 03:49:17;;;;;;;6.20;3.17;;;9.10;99.90;;;;;;5034238;28;20041;-65
2023/12/11 03:51:44;;;;;;;5.95;3.22;;;9.10;99.90;;;;;;5034304;28;20474;-66
2023/12/11 03:54:10;;;;;;;7.75;3.30;;;9.10;99.90;;;;;;5034082;28;20382;-65
2023/12/11 03:56:35;;;;;;;6.40;3.22;;;9.10;99.90;;;;;;5033704;28;20096;-65
2023/12/11 03:59:01;;;;;;;6.57;3.10;;;9.10;99.90;;;;;;5033717;28;20045;-65
2023/12/11 04:01:26;;;;;;;6.22;3.35;;;9.10;99.90;;;;;;5032825;28;20103;-65
2023/12/11 04:03:52;;;;;;;4.20;2.35;;;9.10;99.90;;;;;;5033532;28;20045;-65
2023/12/11 04:06:18;;;;;;;5.32;2.75;;;9.10;99.90;;;;;;5033847;28;20049;-65
2023/12/11 04:08:44;;;;;;;7.10;3.22;;;9.10;99.90;;;;;;5033690;28;20029;-65
2023/12/11 04:11:09;;;;;;;7.57;3.00;;;9.10;99.90;;;;;;5033689;28;20034;-65
2023/12/11 04:13:35;;;;;;;5.10;2.70;;;9.10;99.90;;;;;;5032897;28;20073;-65
2023/12/11 04:16:03;;;;;;;7.07;3.05;;;9.10;99.90;;;;;;5033680;28;20090;-65
2023/12/11 04:18:30;;;;;;;7.22;2.85;;;9.10;99.90;;;;;;5033610;28;20045;-65
2023/12/11 04:20:56;;;;;;;5.40;2.78;;;9.10;99.90;;;;;;5033588;28;20091;-65
2023/12/11 04:23:22;;;;;;;8.50;2.83;;;9.10;99.90;;;;;;5033403;28;20045;-66
2023/12/11 04:25:48;;;;;;;7.15;3.00;;;9.20;99.90;;;;;;5033534;28;20046;-65
2023/12/11 04:28:14;;;;;;;5.72;2.90;;;9.10;99.90;;;;;;5033405;28;20053;-65
2023/12/11 04:30:40;;;;;;;6.07;2.50;;;9.20;99.90;;;;;;5033308;28;20430;-65
2023/12/11 04:33:05;;;;;;;7.32;3.50;;;9.20;99.90;;;;;;5033362;28;20037;-65
2023/12/11 04:35:31;;;;;;;5.93;2.88;;;9.20;99.90;;;;;;5033075;28;20544;-66
2023/12/11 04:37:57;;;;;;;7.43;3.53;;;9.10;99.90;;;;;;5033192;28;20053;-65
2023/12/11 04:40:22;;;;;;;6.93;2.78;;;9.10;99.90;;;;;;5033193;28;20553;-65
2023/12/11 04:42:48;;;;;;;9.95;3.70;;;9.00;99.90;;;;;;5032890;28;20394;-65
2023/12/11 04:45:14;;;;;;;7.75;2.90;;;9.00;99.90;;;;;;5033113;28;20393;-65
2023/12/11 04:47:39;;;;;;;7.30;3.35;;;9.10;99.90;;;;;;5032613;28;20068;-65
2023/12/11 04:50:05;;;;;;;6.88;2.95;;;9.10;99.90;;;;;;5032675;28;20052;-65
2023/12/11 04:52:31;;;;;;;5.30;3.10;;;9.00;99.90;;;;;;5031406;28;20128;-65
2023/12/11 04:54:57;;;;;;;7.85;3.50;;;9.00;99.90;;;;;;5032937;28;20128;-65
2023/12/11 04:57:23;;;;;;;4.40;2.55;;;9.00;99.90;;;;;;5032930;28;20095;-65
2023/12/11 04:59:49;;;;;;;6.65;2.20;;;9.00;99.90;;;;;;5032822;28;20209;-66
2023/12/11 05:02:15;;;;;;;5.45;2.88;;;9.00;99.90;;;;;;5032865;28;20504;-65
2023/12/11 05:04:40;;;;;;;3.45;2.03;;;9.00;99.90;;;;;;5032368;28;20041;-66
2023/12/11 05:07:06;;;;;;;5.45;2.90;;;9.00;99.90;;;;;;5032816;28;20045;-67
2023/12/11 05:09:32;;;;;;;5.38;2.80;;;9.00;99.90;;;;;;5032643;28;20485;-66
2023/12/11 05:11:57;;;;;;;5.60;2.85;;;9.00;99.90;;;;;;5033121;28;20095;-65
2023/12/11 05:14:23;;;;;;;7.07;3.63;;;9.00;99.90;;;;;;5032585;28;20049;-66
2023/12/11 05:16:49;;;;;;;6.45;3.25;;;9.00;99.90;;;;;;5032512;28;20083;-66
2023/12/11 05:19:14;;;;;;;5.20;2.70;;;9.00;99.90;;;;;;5031998;28;20077;-66
2023/12/11 05:21:44;;;;;;;5.40;3.05;;;9.00;99.90;;;;;;5031066;28;20568;-66
2023/12/11 05:24:10;;;;;;;5.78;2.60;;;9.00;99.90;;;;;;5031167;28;20532;-67
2023/12/11 05:26:36;;;;;;;3.92;2.47;;;9.00;99.90;;;;;;5032471;28;20081;-67
2023/12/11 05:29:03;;;;;;;4.82;2.60;;;8.90;99.90;;;;;;5032340;28;20102;-66
2023/12/11 05:31:30;;;;;;;5.47;2.55;;;8.90;99.90;;;;;;5032245;28;20080;-66
2023/12/11 05:33:55;;;;;;;6.95;2.90;;;8.80;99.90;;;;;;5032372;28;20570;-66
2023/12/11 05:36:21;;;;;;;10.00;3.80;;;8.80;99.90;;;;;;5032001;28;20116;-67
2023/12/11 05:38:47;;;;;;;5.80;2.80;;;8.90;99.90;;;;;;5032264;28;20064;-67
2023/12/11 05:41:12;;;;;;;7.55;3.25;;;8.80;99.90;;;;;;5032224;28;20041;-66
2023/12/11 05:43:38;;;;;;;7.35;2.90;;;8.90;99.90;;;;;;5032058;28;20120;-67
2023/12/11 05:46:04;;;;;;;5.57;2.80;;;8.90;99.90;;;;;;5032176;28;20401;-65
2023/12/11 05:48:29;;;;;;;7.53;2.63;;;9.00;99.90;;;;;;5032184;28;20046;-68
2023/12/11 05:50:55;;;;;;;9.35;3.67;;;8.90;99.90;;;;;;5031808;28;20497;-66
2023/12/11 05:53:21;;;;;;;5.30;2.63;;;9.00;99.90;;;;;;5032135;28;20041;-65
2023/12/11 05:55:47;;;;;;;7.35;3.15;;;9.00;99.90;;;;;;5032154;28;20394;-65
2023/12/11 05:58:13;;;;;;;4.97;3.17;;;9.00;99.90;;;;;;5031781;28;20045;-66
2023/12/11 06:00:39;;;;;;;5.88;3.08;;;9.00;99.90;;;;;;5031744;28;20045;-66
2023/12/11 06:03:04;;;;;;;5.93;2.75;;;9.00;99.90;;;;;;5032065;28;20394;-65
2023/12/11 06:05:30;;;;;;;6.35;2.72;;;9.00;99.90;;;;;;5031934;28;20084;-66
2023/12/11 06:07:56;;;;;;;5.78;2.75;;;9.00;99.90;;;;;;5031963;28;20041;-65
2023/12/11 06:10:21;;;;;;;6.82;2.45;;;9.00;99.90;;;;;;5031931;28;20038;-64
2023/12/11 06:12:47;;;;;;;6.03;3.13;;;9.00;99.90;;;;;;5031619;28;20103;-64
2023/12/11 06:15:13;;;;;;;5.63;2.80;;;9.00;99.90;;;;;;5031905;28;20081;-64
2023/12/11 06:17:38;;;;;;;5.38;2.40;;;9.00;99.90;;;;;;5031911;28;20046;-64
2023/12/11 06:20:05;;;;;;;4.05;2.17;;;9.10;99.90;;;;;;5031887;28;20460;-64
2023/12/11 06:22:30;;;;;;;6.55;2.72;;;9.10;99.90;;;;;;5032030;28;20128;-63
2023/12/11 06:24:56;;;;;;;5.50;2.38;;;9.00;99.90;;;;;;5031813;28;20557;-64
2023/12/11 06:27:24;;;;;;;4.82;2.45;;;9.10;99.90;;;;;;5031603;28;20489;-80
2023/12/11 06:29:50;;;;;;;4.82;2.40;;;9.10;99.90;;;;;;5030216;28;20037;-69
2023/12/11 06:32:16;;;;;;;6.65;3.00;;;9.00;99.90;;;;;;5033023;28;20048;-66
2023/12/11 06:34:41;;;;;;;3.83;2.40;;;9.00;99.90;;;;;;5035479;28;20041;-64
2023/12/11 06:37:07;;;;;;;7.13;2.83;;;9.00;99.90;;;;;;5035242;28;20091;-64
2023/12/11 06:39:33;;;;;;;8.38;2.80;;;9.10;99.90;;;;;;5035402;28;20107;-68
2023/12/11 06:41:58;;;;;;;3.53;2.05;;;9.00;99.90;;;;;;5033914;28;20038;-70
2023/12/11 06:44:24;;;;;;;5.00;2.28;;;9.00;99.90;;;;;;5034079;28;20465;-66
2023/12/11 06:46:50;;;;;;;3.50;2.08;;;9.00;99.90;;;;;;5035384;28;20044;-66
2023/12/11 06:49:15;;;;;;;5.95;2.45;;;9.00;99.90;;;;;;5035328;28;20034;-65
2023/12/11 06:51:41;;;;;;;5.28;2.42;;;9.00;99.90;;;;;;5035251;28;20034;-68
2023/12/11 06:54:07;;;;;;;6.55;2.50;;;9.00;99.90;;;;;;5035215;28;20069;-67
2023/12/11 06:56:33;;;;;;;5.32;2.55;;;9.00;99.90;;;;;;5017436;28;20390;-71
2023/12/11 06:59:00;;;;;;;4.53;2.55;;;9.00;99.90;;;;;;5017123;28;20057;-69
2023/12/11 07:01:30;;;;;;;5.50;2.20;;;9.00;99.90;;;;;;5035079;28;20124;-69
2023/12/11 07:03:56;;;;;;;5.90;2.73;;;8.90;99.90;;;;;;5035152;28;20041;-67
2023/12/11 07:06:22;;;;;;;4.72;2.78;;;8.90;99.90;;;;;;5035003;28;20034;-66
2023/12/11 07:08:48;;;;;;;3.97;2.25;;;9.00;99.90;;;;;;5033451;28;20053;-66
2023/12/11 07:11:13;;;;;;;3.65;1.95;;;9.00;99.90;;;;;;5034962;28;20388;-65
2023/12/11 07:13:42;;;;;;;5.07;2.65;;;8.90;99.90;;;;;;5034674;28;20045;-66
2023/12/11 07:16:08;;;;;;;5.15;2.88;;;9.00;99.90;;;;;;5033493;28;20578;-67
2023/12/11 07:18:34;;;;;;;4.88;1.95;;;9.00;99.90;;;;;;5034655;28;20037;-66
2023/12/11 07:21:00;;;;;;;6.00;1.95;;;8.90;99.90;;;;;;5034808;28;20049;-67
2023/12/11 07:23:25;;;;;;;5.93;2.80;;;8.90;99.90;;;;;;5034894;28;20091;-66
2023/12/11 07:25:51;;;;;;;4.88;2.38;;;8.90;99.90;;;;;;5034387;28;20091;-66
2023/12/11 07:28:17;;;;;;;6.55;2.67;;;8.90;99.90;;;;;;5034204;28;20073;-66
2023/12/11 07:30:42;;;;;;;5.15;2.47;;;8.90;99.90;;;;;;5034461;28;20041;-66
2023/12/11 07:33:08;;;;;;;2.60;1.75;;;8.90;99.90;;;;;;5033205;28;20398;-65
2023/12/11 07:35:35;;;;;;;5.72;2.22;;;8.90;99.90;;;;;;5034265;28;20057;-65
2023/12/11 07:38:02;;;;;;;4.55;2.15;;;8.80;99.90;;;;;;5034463;28;20136;-65
2023/12/11 07:40:28;;;;;;;6.05;2.63;;;8.90;99.90;;;;;;5034414;28;20477;-65
2023/12/11 07:42:54;;;;;;;3.05;2.00;;;8.80;99.90;;;;;;5033986;28;20052;-64
2023/12/11 07:45:24;;;;;;;5.20;2.70;;;8.80;99.90;;;;;;5033926;28;20046;-64
2023/12/11 07:47:49;;;;;;;4.97;2.55;;;8.90;99.90;;;;;;5032660;28;20083;-64
2023/12/11 07:50:16;;;;;;;4.00;2.30;;;8.80;99.90;;;;;;5033288;28;20046;-64
2023/12/11 07:52:41;;;;;;;4.32;1.88;;;8.80;99.90;;;;;;5034227;28;20045;-64
2023/12/11 07:55:08;;;;;;;4.32;2.53;;;8.90;99.90;;;;;;5033863;28;20386;-64
2023/12/11 07:57:33;;;;;;;3.38;2.00;;;8.80;99.90;;;;;;5034010;28;20409;-65
2023/12/11 07:59:59;;;;;;;4.43;2.22;;;8.80;99.90;;;;;;5033843;28;20091;-65
2023/12/11 08:02:25;;;;;;;4.47;1.90;;;8.80;99.90;;;;;;5033867;28;20095;-65
2023/12/11 08:04:51;;;;;;;3.22;1.55;;;8.80;99.90;;;;;;5033751;28;20040;-65
2023/12/11 08:07:18;;;;;;;4.80;1.95;;;8.80;99.90;;;;;;5033713;28;20041;-64
2023/12/11 08:09:44;;;;;;;4.60;1.80;;;8.80;99.90;;;;;;5033774;28;20099;-64
2023/12/11 08:12:09;;;;;;;4.35;2.33;;;8.80;99.90;;;;;;5033834;28;20033;-64
2023/12/11 08:14:35;;;;;;;6.32;2.13;;;8.80;99.90;;;;;;5033681;28;20034;-64
2023/12/11 08:17:01;;;;;;;4.85;2.17;;;8.80;99.90;;;;;;5033686;28;20429;-65
2023/12/11 08:19:26;;;;;;;3.45;1.92;;;8.80;99.90;;;;;;5033492;28;20116;-68
2023/12/11 08:21:55;;;;;;;4.40;1.83;;;8.80;99.90;;;;;;5033537;28;20045;-68
2023/12/11 08:24:21;;;;;;;2.70;1.20;;;8.80;99.90;;;;;;5033376;28;20120;-67
2023/12/11 08:26:47;;;;;;;3.78;1.38;;;8.80;99.90;;;;;;5033056;28;20144;-64
2023/12/11 08:29:12;;;;;;;4.40;2.15;;;8.80;99.90;;;;;;5033075;28;20038;-65
2023/12/11 08:31:38;;;;;;;3.50;1.52;;;8.80;99.90;;;;;;5033028;28;20504;-68
2023/12/11 08:34:04;;;;;;;5.93;1.30;;;8.80;99.90;;;;;;5033290;28;20056;-65
2023/12/11 08:36:29;;;;;;;4.28;1.85;;;8.80;99.90;;;;;;5031399;28;20053;-68
2023/12/11 08:38:55;;;;;;;3.13;1.67;;;8.80;99.90;;;;;;5033279;28;20077;-64
2023/12/11 08:41:21;;;;;;;3.88;1.50;;;8.80;99.90;;;;;;5033220;28;20477;-65
2023/12/11 08:43:47;;;;;;;3.00;1.45;;;8.80;99.90;;;;;;5033143;28;20038;-65
2023/12/11 08:46:13;;;;;;;1.75;1.15;;;8.80;99.90;;;;;;5033156;28;20061;-70
2023/12/11 08:48:39;;;;;;;1.63;1.17;;;8.80;99.90;;;;;;5032790;28;20034;-65
2023/12/11 08:51:05;;;;;;;1.75;0.88;;;8.80;99.90;;;;;;5033025;28;20088;-65
2023/12/11 08:53:31;;;;;;;2.42;1.25;;;8.80;99.90;;;;;;5032434;28;20045;-64
2023/12/11 08:55:57;;;;;;;1.30;1.17;;;8.80;99.90;;;;;;5032835;28;20379;-64
2023/12/11 08:58:24;;;;;;;1.83;1.00;;;8.80;99.90;;;;;;5032971;28;20049;-67
2023/12/11 09:00:50;;;;;;;1.77;0.90;;;8.80;99.90;;;;;;5032840;28;20048;-63
2023/12/11 09:03:15;;;;;;;1.20;1.10;;;8.80;99.90;;;;;;5032807;28;20045;-64
2023/12/11 09:05:41;;;;;;;1.90;1.23;;;8.90;99.90;;;;;;5032655;28;20458;-66
2023/12/11 09:08:07;;;;;;;1.95;1.27;;;8.90;99.90;;;;;;5031248;28;20485;-67
2023/12/11 09:10:34;;;;;;;2.10;1.27;;;8.90;99.90;;;;;;5032427;28;20034;-64
2023/12/11 09:13:00;;;;;;;1.70;1.10;;;8.90;99.90;;;;;;5032675;28;20080;-64
2023/12/11 09:15:26;;;;;;;1.58;1.15;;;8.90;99.90;;;;;;5032571;28;20069;-64
2023/12/11 09:17:51;;;;;;;2.53;0.95;;;9.00;99.90;;;;;;5032568;28;20402;-64
2023/12/11 09:20:17;;;;;;;2.85;1.17;;;9.00;99.90;;;;;;5031004;28;20504;-64
2023/12/11 09:22:43;;;;;;;2.08;0.88;;;9.00;99.90;;;;;;5032537;28;20477;-64
2023/12/11 09:25:09;;;;;;;2.50;1.13;;;9.00;99.90;;;;;;5032428;28;20393;-64
2023/12/11 09:27:35;;;;;;;1.42;0.90;;;9.10;99.90;;;;;;5032457;28;20124;-68
2023/12/11 09:30:01;;;;;;;1.92;1.23;;;9.10;99.90;;;;;;5032426;28;20179;-64
2023/12/11 09:32:28;;;;;;;2.45;1.02;;;9.10;99.90;;;;;;5032395;28;20048;-64
2023/12/11 09:34:53;;;;;;;1.98;1.20;;;9.20;99.90;;;;;;5032119;28;20149;-64
2023/12/11 09:37:19;;;;;;;1.63;1.00;;;9.10;99.90;;;;;;5032299;28;20537;-64
2023/12/11 09:39:47;;;;;;;3.42;1.30;;;9.20;99.90;;;;;;5032305;28;20531;-64
2023/12/11 09:42:14;;;;;;;1.70;1.30;;;9.30;99.90;;;;;;5032353;28;20394;-64
2023/12/11 09:44:45;;;;;;;2.15;0.90;;;9.30;99.90;;;;;;5032060;28;20389;-64
2023/12/11 09:47:17;;;;;;;1.73;0.80;;;9.30;99.90;;;;;;5032177;28;20038;-63
2023/12/11 09:49:45;;;;;;;2.42;0.98;;;9.30;99.90;;;;;;5032113;28;20052;-64
2023/12/11 09:52:11;;;;;;;1.98;1.02;;;9.30;99.90;;;;;;5032152;28;20088;-64
2023/12/11 09:54:37;;;;;;;2.03;1.30;;;9.30;99.90;;;;;;5032093;28;20072;-64
2023/12/11 09:57:03;;;;;;;2.75;1.80;;;9.30;99.90;;;;;;5032111;28;20045;-63
2023/12/11 09:59:30;;;;;;;1.77;1.05;;;9.30;99.90;;;;;;5032076;28;20392;-64
2023/12/11 10:01:57;;;;;;;4.00;1.40;;;9.30;99.90;;;;;;5032020;28;20052;-63
2023/12/11 10:04:22;;;;;;;2.35;1.40;;;9.30;99.90;;;;;;5032074;28;20120;-63
2023/12/11 10:06:52;;;;;;;2.25;1.20;;;9.30;99.90;;;;;;5035709;28;20076;-64
2023/12/11 10:09:27;;;;;;;2.72;1.50;;;9.30;99.90;;;;;;5036062;28;20049;-63
2023/12/11 10:12:00;;;;;;;2.38;1.42;;;9.40;99.90;;;;;;5035941;28;20507;-63
2023/12/11 10:14:30;;;;;;;1.92;0.90;;;9.40;99.90;;;;;;5035675;28;20042;-64
2023/12/11 10:16:56;;;;;;;1.80;0.95;;;9.40;99.90;;;;;;5035931;28;20052;-64
2023/12/11 10:19:34;;;;;;;2.30;1.20;;;9.60;99.90;;;;;;5036737;28;20041;-64
2023/12/11 10:22:00;;;;;;;2.45;1.38;;;9.50;99.90;;;;;;5036720;28;20402;-64
2023/12/11 10:24:26;;;;;;;3.00;1.50;;;9.50;99.90;;;;;;5036668;28;20157;-64
2023/12/11 10:26:56;;;;;;;2.35;1.20;;;9.50;99.90;;;;;;5036694;28;20616;-64
2023/12/11 10:29:25;;;;;;;1.63;1.05;;;9.50;99.90;;;;;;5036579;28;20049;-64
2023/12/11 10:31:53;;;;;;;1.67;1.27;;;9.60;99.90;;;;;;5036220;28;20382;-64
2023/12/11 10:34:45;;;;;;;2.85;1.08;;;9.70;99.90;;;;;;5034997;28;20084;-63
2023/12/11 10:37:16;;;;;;;3.20;1.40;;;9.70;99.90;;;;;;5036527;28;20425;-64
2023/12/11 10:39:55;;;;;;;3.95;1.73;;;9.70;99.90;;;;;;5036193;28;20045;-64
2023/12/11 10:42:21;;;;;;;3.53;1.48;;;9.80;99.90;;;;;;5036347;28;20099;-64
2023/12/11 10:44:47;;;;;;;2.70;1.55;;;;;;;;;;5036203;28;20042;-64
2023/12/11 10:47:13;;;;;;;1.88;1.33;;;;;;;;;;5036297;28;20401;-63
2023/12/11 10:49:40;;;;;;;1.58;1.08;;;;;;;;;;5036288;28;20049;-63
2023/12/11 10:52:06;;;;;;;3.63;1.67;;;;;;;;;;5036260;28;20378;-64
2023/12/11 10:54:33;;;;;;;2.60;1.42;;;;;;;;;;5035960;28;20051;-64
2023/12/11 10:57:01;;;;;;;3.63;1.55;;;;;;;;;;5036134;28;20053;-64
2023/12/11 10:59:31;;;;;;;3.70;1.35;;;;;;;;;;5034780;28;20120;-65
2023/12/11 11:01:58;;;;;;;3.22;1.50;;;;;;;;;;5036090;28;20424;-64
2023/12/11 11:04:25;;;;;;;3.30;1.65;;;;;;;;;;5034344;28;20041;-64
2023/12/11 11:06:57;;;;;;;2.83;1.30;;;;;;;;;;5035834;28;20409;-64
2023/12/11 11:09:30;;;;;;;2.30;1.15;;;;;;;;;;5036167;28;20041;-64
2023/12/11 11:12:03;;;;;;;2.22;1.30;;;;;;;;;;5035576;28;20052;-69
2023/12/11 11:14:47;;;;;;;4.13;1.42;;;;;;;;;;5035960;28;20049;-63
2023/12/11 11:17:13;;;;;;;3.03;1.23;;;;;;;;;;5034920;28;20440;-66
2023/12/11 11:19:58;;;;;;;2.38;1.33;;;;;;;;;;5035993;28;20045;-64
2023/12/11 11:22:24;;;;;;;2.03;1.10;;;;;;;;;;5035632;28;20087;-63
2023/12/11 11:24:50;;;;;;;2.15;1.58;;;;;;;;;;5035602;28;20367;-65
2023/12/11 11:27:35;;;;;;;4.45;1.33;;;;;;;;;;5035610;28;20042;-64
2023/12/11 11:30:01;;;;;;;2.33;1.38;;;;;;;;;;5034267;28;20121;-69
2023/12/11 11:32:47;;;;;;;3.20;1.48;;;;;;;;;;5034313;28;20398;-64
2023/12/11 11:35:33;;;;;;;3.10;1.38;;;;;;;;;;5034826;28;20057;-64
2023/12/11 11:37:59;;;;;;;2.05;1.13;;;;;;;;;;5035010;28;20053;-64
2023/12/11 11:40:34;;;;;;;3.20;1.17;;;;;;;;;;5035323;28;20460;-65
2023/12/11 11:43:01;;;;;;;1.50;1.17;;;;;;;;;;5035027;28;20142;-64
2023/12/11 11:45:27;;;;;;;2.15;1.17;;;;;;;;;;5035187;28;20416;-64
2023/12/11 11:47:53;;;;;;;3.15;1.48;;;;;;;;;;5035164;28;20069;-64
2023/12/11 11:50:19;;;;;;;2.88;1.17;;;;;;;;;;5034839;28;20053;-64
2023/12/11 11:52:46;;;;;;;1.75;1.10;;;;;;;;;;5034790;28;20037;-64
2023/12/11 11:55:13;;;;;;;2.15;1.00;;;;;;;;;;5033575;28;20041;-64
2023/12/11 11:57:42;;;;;;;2.15;1.00;;;;;;;;;;5034973;28;20049;-64
2023/12/11 12:00:09;;;;;;;1.60;1.13;;;;;;;;;;5033628;28;20124;-64
2023/12/11 12:02:35;;;;;;;1.35;0.90;;;;;;;;;;5034947;28;20131;-64
2023/12/11 12:05:10;;;;;;;2.45;1.25;;;;;;;;;;5034863;28;20401;-64
2023/12/11 12:07:40;;;;;;;1.30;0.82;;;;;;;;;;5034851;28;20037;-64
2023/12/11 12:10:07;;;;;;;1.73;1.13;;;;;;;;;;5033516;28;20099;-66
2023/12/11 12:12:33;;;;;;;1.60;0.90;;;;;;;;;;5034691;28;20061;-64
2023/12/11 12:15:07;;;;;;;1.45;1.00;;;;;;;;;;5034781;28;20122;-66
2023/12/11 12:17:33;;;;;;;2.53;1.10;;;;;;;;;;5034319;28;20052;-66
2023/12/11 12:20:00;;;;;;;1.17;0.88;;;;;;;;;;5034270;28;20088;-66
2023/12/11 12:22:26;;;;;;;1.85;1.20;;;;;;;;;;5034615;28;20041;-66
2023/12/11 12:24:52;;;;;;;1.63;1.13;;;;;;;;;;5034398;28;20043;-66
2023/12/11 12:27:20;;;;;;;3.47;1.98;;;;;;;;;;5034479;28;20034;-66
2023/12/11 12:29:46;;;;;;;4.13;2.30;;;;;;;;;;5033205;28;20137;-66
2023/12/11 12:32:14;;;;;;;3.03;1.75;;;;;;;;;;5034356;28;20076;-64
2023/12/11 12:34:41;;;;;;;3.78;1.80;;;;;;;;;;5034319;28;20497;-64
2023/12/11 12:37:07;;;;;;;3.97;1.77;;;;;;;;;;5034271;28;20421;-65
2023/12/11 12:39:33;;;;;;;3.10;1.33;;;;;;;;;;5032979;28;20475;-66
2023/12/11 12:42:00;;;;;;;2.35;1.38;;;;;;;;;;5033910;28;20129;-65
2023/12/11 12:44:26;;;;;;;2.55;1.42;;;;;;;;;;5034123;28;20814;-64
2023/12/11 12:46:52;;;;;;;2.92;1.27;;;;;;;;;;5034076;28;20048;-65
2023/12/11 12:49:18;;;;;;;2.78;1.70;;;;;;;;;;5033984;28;20393;-65
2023/12/11 12:51:44;;;;;;;1.92;0.93;;;;;;;;;;5033961;28;20052;-65
2023/12/11 12:54:14;;;;;;;3.53;1.25;;;;;;;;;;5033992;28;20041;-65
2023/12/11 12:56:41;;;;;;;3.88;1.50;;;;;;;;;;5033980;28;20077;-65
2023/12/11 12:59:07;;;;;;;3.55;1.40;;;;;;;;;;5033577;28;20444;-65
2023/12/11 13:01:37;;;;;;;2.33;1.27;;;;;;;;;;5032265;28;20397;-66
2023/12/11 13:04:07;;;;;;;2.65;1.42;;;;;;;;;;5033382;28;20048;-64
2023/12/11 13:06:33;;;;;;;2.90;1.35;;;;;;;;;;5033393;28;20048;-65
2023/12/11 13:08:59;;;;;;;2.25;1.00;;;;;;;;;;5033419;28;20037;-67
2023/12/11 13:11:50;;;;;;;2.38;1.13;;;;;;;;;;5033649;28;20044;-65